sensor_id;sensor_type;location;lat;lon;timestamp;temperature;humidity
49765;DHT22;35657;51.204;-4.130;2024-01-10T00:01:36;3.20;99.90
49765;DHT22;35657;51.204;-4.130;2024-01-10T00:04:01;3.20;99.90
49765;DHT22;35657;51.204;-4.130;2024-01-10T00:06:28;3.30;99.90
49765;DHT22;35657;51.204;-4.130;2024-01-10T00:08:54;3.30;99.90
49765;DHT22;35657;51.204;-4.130;2024-01-10T00:11:20;3.30;99.90
49765;DHT22;35657;51.204;-4.130;2024-01-10T00:13:46;3.30;99.90
49765;DHT22;35657;51.204;-4.130;2024-01-10T00:16:12;3.30;99.90
49765;DHT22;35657;51.204;-4.130;2024-01-10T00:18:41;3.30;99.90
49765;DHT22;35657;51.204;-4.130;2024-01-10T00:21:07;3.30;99.90
49765;DHT22;35657;51.204;-4.130;2024-01-10T00:23:33;3.30;99.90
49765;DHT22;35657;51.204;-4.130;2024-01-10T00:25:59;3.30;99.90
49765;DHT22;35657;51.204;-4.130;2024-01-10T00:28:26;3.30;99.90
49765;DHT22;35657;51.204;-4.130;2024-01-10T00:30:52;3.30;99.90
49765;DHT22;35657;51.204;-4.130;2024-01-10T00:33:17;3.30;99.90
49765;DHT22;35657;51.204;-4.130;2024-01-10T00:35:43;3.30;99.90
49765;DHT22;35657;51.204;-4.130;2024-01-10T00:38:09;3.30;99.90
49765;DHT22;35657;51.204;-4.130;2024-01-10T00:40:35;3.30;99.90
49765;DHT22;35657;51.204;-4.130;2024-01-10T00:43:01;3.30;99.90
49765;DHT22;35657;51.204;-4.130;2024-01-10T00:45:27;3.40;99.90
49765;DHT22;35657;51.204;-4.130;2024-01-10T00:47:53;3.30;99.90
49765;DHT22;35657;51.204;-4.130;2024-01-10T00:50:18;3.30;99.90
49765;DHT22;35657;51.204;-4.130;2024-01-10T00:52:45;3.30;99.90
49765;DHT22;35657;51.204;-4.130;2024-01-10T00:55:10;3.40;99.90
49765;DHT22;35657;51.204;-4.130;2024-01-10T00:57:36;3.40;99.90
49765;DHT22;35657;51.204;-4.130;2024-01-10T01:00:05;3.40;99.90
49765;DHT22;35657;51.204;-4.130;2024-01-10T01:02:31;3.40;99.90
49765;DHT22;35657;51.204;-4.130;2024-01-10T01:04:57;3.40;99.90
49765;DHT22;35657;51.204;-4.130;2024-01-10T01:07:23;3.40;99.90
49765;DHT22;35657;51.204;-4.130;2024-01-10T01:09:48;3.30;99.90
49765;DHT22;35657;51.204;-4.130;2024-01-10T01:12:15;3.30;99.90
49765;DHT22;35657;51.204;-4.130;2024-01-10T01:14:41;3.40;99.90
49765;DHT22;35657;51.204;-4.130;2024-01-10T01:17:07;3.40;99.90
49765;DHT22;35657;51.204;-4.130;2024-01-10T01:19:33;3.40;99.90
49765;DHT22;35657;51.204;-4.130;2024-01-10T01:21:58;3.40;99.90
49765;DHT22;35657;51.204;-4.130;2024-01-10T01:24:24;3.40;99.90
49765;DHT22;35657;51.204;-4.130;2024-01-10T01:26:50;3.40;99.90
49765;DHT22;35657;51.204;-4.130;2024-01-10T01:29:16;3.40;99.90
49765;DHT22;35657;51.204;-4.130;2024-01-10T01:31:42;3.40;99.90
49765;DHT22;35657;51.204;-4.130;2024-01-10T01:34:07;3.40;99.90
49765;DHT22;35657;51.204;-4.130;2024-01-10T01:36:33;3.40;99.90
49765;DHT22;35657;51.204;-4.130;2024-01-10T01:38:59;3.40;99.90
49765;DHT22;35657;51.204;-4.130;2024-01-10T01:41:25;3.50;99.90
49765;DHT22;35657;51.204;-4.130;2024-01-10T01:43:51;3.50;99.90
49765;DHT22;35657;51.204;-4.130;2024-01-10T01:46:17;3.50;99.90
49765;DHT22;35657;51.204;-4.130;2024-01-10T01:48:43;3.50;99.90
49765;DHT22;35657;51.204;-4.130;2024-01-10T01:51:09;3.50;99.90
49765;DHT22;35657;51.204;-4.130;2024-01-10T01:53:36;3.50;99.90
49765;DHT22;35657;51.204;-4.130;2024-01-10T01:56:12;3.50;99.90
49765;DHT22;35657;51.204;-4.130;2024-01-10T01:58:39;3.40;99.90
49765;DHT22;35657;51.204;-4.130;2024-01-10T02:01:05;3.50;99.90
49765;DHT22;35657;51.204;-4.130;2024-01-10T02:03:32;3.50;99.90
49765;DHT22;35657;51.204;-4.130;2024-01-10T02:06:01;3.50;99.90
49765;DHT22;35657;51.204;-4.130;2024-01-10T02:08:33;3.50;99.90
49765;DHT22;35657;51.204;-4.130;2024-01-10T02:11:00;3.50;99.90
49765;DHT22;35657;51.204;-4.130;2024-01-10T02:13:26;3.50;99.90
49765;DHT22;35657;51.204;-4.130;2024-01-10T02:15:52;3.50;99.90
49765;DHT22;35657;51.204;-4.130;2024-01-10T02:18:20;3.50;99.90
49765;DHT22;35657;51.204;-4.130;2024-01-10T02:20:45;3.50;99.90
49765;DHT22;35657;51.204;-4.130;2024-01-10T02:23:12;3.50;99.90
49765;DHT22;35657;51.204;-4.130;2024-01-10T02:25:39;3.50;99.90
49765;DHT22;35657;51.204;-4.130;2024-01-10T02:28:05;3.50;99.90
49765;DHT22;35657;51.204;-4.130;2024-01-10T02:30:31;3.50;99.90
49765;DHT22;35657;51.204;-4.130;2024-01-10T02:32:57;3.40;99.90
49765;DHT22;35657;51.204;-4.130;2024-01-10T02:35:22;3.50;99.90
49765;DHT22;35657;51.204;-4.130;2024-01-10T02:37:48;3.50;99.90
49765;DHT22;35657;51.204;-4.130;2024-01-10T02:40:17;3.50;99.90
49765;DHT22;35657;51.204;-4.130;2024-01-10T02:42:44;3.60;99.90
49765;DHT22;35657;51.204;-4.130;2024-01-10T02:45:09;3.50;99.90
49765;DHT22;35657;51.204;-4.130;2024-01-10T02:47:35;3.60;99.90
49765;DHT22;35657;51.204;-4.130;2024-01-10T02:50:03;3.50;99.90
49765;DHT22;35657;51.204;-4.130;2024-01-10T02:52:29;3.50;99.90
49765;DHT22;35657;51.204;-4.130;2024-01-10T02:54:55;3.50;99.90
49765;DHT22;35657;51.204;-4.130;2024-01-10T02:57:21;3.50;99.90
49765;DHT22;35657;51.204;-4.130;2024-01-10T02:59:47;3.50;99.90
49765;DHT22;35657;51.204;-4.130;2024-01-10T03:02:13;3.50;99.90
49765;DHT22;35657;51.204;-4.130;2024-01-10T03:04:39;3.60;99.90
49765;DHT22;35657;51.204;-4.130;2024-01-10T03:07:04;3.50;99.90
49765;DHT22;35657;51.204;-4.130;2024-01-10T03:09:30;3.60;99.90
49765;DHT22;35657;51.204;-4.130;2024-01-10T03:11:56;3.60;99.90
49765;DHT22;35657;51.204;-4.130;2024-01-10T03:14:22;3.60;99.90
49765;DHT22;35657;51.204;-4.130;2024-01-10T03:16:48;3.50;99.90
49765;DHT22;35657;51.204;-4.130;2024-01-10T03:19:13;3.60;99.90
49765;DHT22;35657;51.204;-4.130;2024-01-10T03:21:39;3.50;99.90
49765;DHT22;35657;51.204;-4.130;2024-01-10T03:24:05;3.50;99.90
49765;DHT22;35657;51.204;-4.130;2024-01-10T03:26:31;3.50;99.90
49765;DHT22;35657;51.204;-4.130;2024-01-10T03:28:57;3.50;99.90
49765;DHT22;35657;51.204;-4.130;2024-01-10T03:31:24;3.50;99.90
49765;DHT22;35657;51.204;-4.130;2024-01-10T03:33:49;3.50;99.90
49765;DHT22;35657;51.204;-4.130;2024-01-10T03:36:16;3.50;99.90
49765;DHT22;35657;51.204;-4.130;2024-01-10T03:38:43;3.60;99.90
49765;DHT22;35657;51.204;-4.130;2024-01-10T03:41:16;3.60;99.90
49765;DHT22;35657;51.204;-4.130;2024-01-10T03:43:42;3.50;99.90
49765;DHT22;35657;51.204;-4.130;2024-01-10T03:46:09;3.50;99.90
49765;DHT22;35657;51.204;-4.130;2024-01-10T03:48:35;3.50;99.90
49765;DHT22;35657;51.204;-4.130;2024-01-10T03:51:00;3.50;99.90
49765;DHT22;35657;51.204;-4.130;2024-01-10T03:53:27;3.60;99.90
49765;DHT22;35657;51.204;-4.130;2024-01-10T03:55:52;3.60;99.90
49765;DHT22;35657;51.204;-4.130;2024-01-10T03:58:18;3.50;99.90
49765;DHT22;35657;51.204;-4.130;2024-01-10T04:00:44;3.50;99.90
49765;DHT22;35657;51.204;-4.130;2024-01-10T04:03:10;3.50;99.90
49765;DHT22;35657;51.204;-4.130;2024-01-10T04:05:35;3.50;99.90
49765;DHT22;35657;51.204;-4.130;2024-01-10T04:08:01;3.50;99.90
49765;DHT22;35657;51.204;-4.130;2024-01-10T04:10:28;3.50;99.90
49765;DHT22;35657;51.204;-4.130;2024-01-10T04:12:53;3.60;99.90
49765;DHT22;35657;51.204;-4.130;2024-01-10T04:15:19;3.60;99.90
49765;DHT22;35657;51.204;-4.130;2024-01-10T04:17:45;3.60;99.90
49765;DHT22;35657;51.204;-4.130;2024-01-10T04:20:10;3.50;99.90
49765;DHT22;35657;51.204;-4.130;2024-01-10T04:22:36;3.50;99.90
49765;DHT22;35657;51.204;-4.130;2024-01-10T04:25:05;3.60;99.90
49765;DHT22;35657;51.204;-4.130;2024-01-10T04:27:31;3.60;99.90
49765;DHT22;35657;51.204;-4.130;2024-01-10T04:29:57;3.60;99.90
49765;DHT22;35657;51.204;-4.130;2024-01-10T04:32:22;3.60;99.90
49765;DHT22;35657;51.204;-4.130;2024-01-10T04:34:48;3.60;99.90
49765;DHT22;35657;51.204;-4.130;2024-01-10T04:37:14;3.50;99.90
49765;DHT22;35657;51.204;-4.130;2024-01-10T04:39:40;3.60;99.90
49765;DHT22;35657;51.204;-4.130;2024-01-10T04:42:08;3.60;99.90
49765;DHT22;35657;51.204;-4.130;2024-01-10T04:44:36;3.60;99.90
49765;DHT22;35657;51.204;-4.130;2024-01-10T04:47:02;3.60;99.90
49765;DHT22;35657;51.204;-4.130;2024-01-10T04:49:28;3.60;99.90
49765;DHT22;35657;51.204;-4.130;2024-01-10T04:51:54;3.60;99.90
49765;DHT22;35657;51.204;-4.130;2024-01-10T04:54:19;3.50;99.90
49765;DHT22;35657;51.204;-4.130;2024-01-10T04:56:46;3.50;99.90
49765;DHT22;35657;51.204;-4.130;2024-01-10T04:59:12;3.50;99.90
49765;DHT22;35657;51.204;-4.130;2024-01-10T05:01:37;3.50;99.90
49765;DHT22;35657;51.204;-4.130;2024-01-10T05:04:03;3.50;99.90
49765;DHT22;35657;51.204;-4.130;2024-01-10T05:06:29;3.50;99.90
49765;DHT22;35657;51.204;-4.130;2024-01-10T05:08:55;3.50;99.90
49765;DHT22;35657;51.204;-4.130;2024-01-10T05:11:25;3.50;99.90
49765;DHT22;35657;51.204;-4.130;2024-01-10T05:13:54;3.50;99.90
49765;DHT22;35657;51.204;-4.130;2024-01-10T05:16:20;3.40;99.90
49765;DHT22;35657;51.204;-4.130;2024-01-10T05:18:47;3.40;99.90
49765;DHT22;35657;51.204;-4.130;2024-01-10T05:21:12;3.40;99.90
49765;DHT22;35657;51.204;-4.130;2024-01-10T05:23:38;3.40;99.90
49765;DHT22;35657;51.204;-4.130;2024-01-10T05:26:06;3.40;99.90
49765;DHT22;35657;51.204;-4.130;2024-01-10T05:28:31;3.50;99.90
49765;DHT22;35657;51.204;-4.130;2024-01-10T05:30:58;3.40;99.90
49765;DHT22;35657;51.204;-4.130;2024-01-10T05:33:24;3.40;99.90
49765;DHT22;35657;51.204;-4.130;2024-01-10T05:35:49;3.50;99.90
49765;DHT22;35657;51.204;-4.130;2024-01-10T05:38:15;3.50;99.90
49765;DHT22;35657;51.204;-4.130;2024-01-10T05:40:41;3.50;99.90
49765;DHT22;35657;51.204;-4.130;2024-01-10T05:43:07;3.40;99.90
49765;DHT22;35657;51.204;-4.130;2024-01-10T05:45:33;3.40;99.90
49765;DHT22;35657;51.204;-4.130;2024-01-10T05:47:59;3.40;99.90
49765;DHT22;35657;51.204;-4.130;2024-01-10T05:50:25;3.50;99.90
49765;DHT22;35657;51.204;-4.130;2024-01-10T05:52:50;3.40;99.90
49765;DHT22;35657;51.204;-4.130;2024-01-10T05:55:16;3.40;99.90
49765;DHT22;35657;51.204;-4.130;2024-01-10T05:57:42;3.40;99.90
49765;DHT22;35657;51.204;-4.130;2024-01-10T06:00:08;3.40;99.90
49765;DHT22;35657;51.204;-4.130;2024-01-10T06:02:37;3.40;99.90
49765;DHT22;35657;51.204;-4.130;2024-01-10T06:05:08;3.40;99.90
49765;DHT22;35657;51.204;-4.130;2024-01-10T06:07:37;3.40;99.90
49765;DHT22;35657;51.204;-4.130;2024-01-10T06:10:03;3.40;99.90
49765;DHT22;35657;51.204;-4.130;2024-01-10T06:12:29;3.40;99.90
49765;DHT22;35657;51.204;-4.130;2024-01-10T06:14:55;3.40;99.90
49765;DHT22;35657;51.204;-4.130;2024-01-10T06:17:21;3.40;99.90
49765;DHT22;35657;51.204;-4.130;2024-01-10T06:19:47;3.40;99.90
49765;DHT22;35657;51.204;-4.130;2024-01-10T06:22:13;3.40;99.90
49765;DHT22;35657;51.204;-4.130;2024-01-10T06:24:39;3.40;99.90
49765;DHT22;35657;51.204;-4.130;2024-01-10T06:27:06;3.40;99.90
49765;DHT22;35657;51.204;-4.130;2024-01-10T06:29:32;3.40;99.90
49765;DHT22;35657;51.204;-4.130;2024-01-10T06:31:58;3.50;99.90
49765;DHT22;35657;51.204;-4.130;2024-01-10T06:34:27;3.50;99.90
49765;DHT22;35657;51.204;-4.130;2024-01-10T06:36:52;3.40;99.90
49765;DHT22;35657;51.204;-4.130;2024-01-10T06:39:18;3.40;99.90
49765;DHT22;35657;51.204;-4.130;2024-01-10T06:41:48;3.40;99.90
49765;DHT22;35657;51.204;-4.130;2024-01-10T06:44:14;3.40;99.90
49765;DHT22;35657;51.204;-4.130;2024-01-10T06:46:40;3.50;99.90
49765;DHT22;35657;51.204;-4.130;2024-01-10T06:49:06;3.40;99.90
49765;DHT22;35657;51.204;-4.130;2024-01-10T06:51:32;3.40;99.90
49765;DHT22;35657;51.204;-4.130;2024-01-10T06:53:58;3.50;99.90
49765;DHT22;35657;51.204;-4.130;2024-01-10T06:56:29;3.50;99.90
49765;DHT22;35657;51.204;-4.130;2024-01-10T06:58:56;3.50;99.90
49765;DHT22;35657;51.204;-4.130;2024-01-10T07:01:22;3.40;99.90
49765;DHT22;35657;51.204;-4.130;2024-01-10T07:03:48;3.50;99.90
49765;DHT22;35657;51.204;-4.130;2024-01-10T07:06:14;3.50;99.90
49765;DHT22;35657;51.204;-4.130;2024-01-10T07:08:41;3.40;99.90
49765;DHT22;35657;51.204;-4.130;2024-01-10T07:11:08;3.40;99.90
49765;DHT22;35657;51.204;-4.130;2024-01-10T07:13:34;3.40;99.90
49765;DHT22;35657;51.204;-4.130;2024-01-10T07:16:00;3.40;99.90
49765;DHT22;35657;51.204;-4.130;2024-01-10T07:18:28;3.40;99.90
49765;DHT22;35657;51.204;-4.130;2024-01-10T07:20:54;3.50;99.90
49765;DHT22;35657;51.204;-4.130;2024-01-10T07:23:20;3.40;99.90
49765;DHT22;35657;51.204;-4.130;2024-01-10T07:25:46;3.40;99.90
49765;DHT22;35657;51.204;-4.130;2024-01-10T07:28:11;3.40;99.90
49765;DHT22;35657;51.204;-4.130;2024-01-10T07:30:37;3.40;99.90
49765;DHT22;35657;51.204;-4.130;2024-01-10T07:33:03;3.40;99.90
49765;DHT22;35657;51.204;-4.130;2024-01-10T07:35:28;3.40;99.90
49765;DHT22;35657;51.204;-4.130;2024-01-10T07:37:55;3.40;99.90
49765;DHT22;35657;51.204;-4.130;2024-01-10T07:40:21;3.40;99.90
49765;DHT22;35657;51.204;-4.130;2024-01-10T07:42:48;3.40;99.90
49765;DHT22;35657;51.204;-4.130;2024-01-10T07:45:14;3.40;99.90
49765;DHT22;35657;51.204;-4.130;2024-01-10T07:47:40;3.40;99.90
49765;DHT22;35657;51.204;-4.130;2024-01-10T07:50:10;3.40;99.90
49765;DHT22;35657;51.204;-4.130;2024-01-10T07:52:36;3.40;99.90
49765;DHT22;35657;51.204;-4.130;2024-01-10T07:55:02;3.40;99.90
49765;DHT22;35657;51.204;-4.130;2024-01-10T07:57:31;3.40;99.90
49765;DHT22;35657;51.204;-4.130;2024-01-10T07:59:56;3.40;99.90
49765;DHT22;35657;51.204;-4.130;2024-01-10T08:02:23;3.40;99.90
49765;DHT22;35657;51.204;-4.130;2024-01-10T08:04:49;3.40;99.90
49765;DHT22;35657;51.204;-4.130;2024-01-10T08:07:15;3.40;99.90
49765;DHT22;35657;51.204;-4.130;2024-01-10T08:09:40;3.40;99.90
49765;DHT22;35657;51.204;-4.130;2024-01-10T08:12:06;3.40;99.90
49765;DHT22;35657;51.204;-4.130;2024-01-10T08:14:32;3.40;99.90
49765;DHT22;35657;51.204;-4.130;2024-01-10T08:16:58;3.30;99.90
49765;DHT22;35657;51.204;-4.130;2024-01-10T08:19:26;3.30;99.90
49765;DHT22;35657;51.204;-4.130;2024-01-10T08:21:55;3.30;99.90
49765;DHT22;35657;51.204;-4.130;2024-01-10T08:24:22;3.40;99.90
49765;DHT22;35657;51.204;-4.130;2024-01-10T08:26:48;3.40;99.90
49765;DHT22;35657;51.204;-4.130;2024-01-10T08:29:20;3.30;99.90
49765;DHT22;35657;51.204;-4.130;2024-01-10T08:31:47;3.30;99.90
49765;DHT22;35657;51.204;-4.130;2024-01-10T08:34:13;3.40;99.90
49765;DHT22;35657;51.204;-4.130;2024-01-10T08:36:39;3.40;99.90
49765;DHT22;35657;51.204;-4.130;2024-01-10T08:39:05;3.40;99.90
49765;DHT22;35657;51.204;-4.130;2024-01-10T08:41:32;3.30;99.90
49765;DHT22;35657;51.204;-4.130;2024-01-10T08:43:59;3.40;99.90
49765;DHT22;35657;51.204;-4.130;2024-01-10T08:46:25;3.40;99.90
49765;DHT22;35657;51.204;-4.130;2024-01-10T08:48:51;3.40;99.90
49765;DHT22;35657;51.204;-4.130;2024-01-10T08:51:16;3.40;99.90
49765;DHT22;35657;51.204;-4.130;2024-01-10T08:53:45;3.40;99.90
49765;DHT22;35657;51.204;-4.130;2024-01-10T08:56:11;3.40;99.90
49765;DHT22;35657;51.204;-4.130;2024-01-10T08:58:37;3.40;99.90
49765;DHT22;35657;51.204;-4.130;2024-01-10T09:01:03;3.50;99.90
49765;DHT22;35657;51.204;-4.130;2024-01-10T09:03:33;3.50;99.90
49765;DHT22;35657;51.204;-4.130;2024-01-10T09:05:59;3.50;99.90
49765;DHT22;35657;51.204;-4.130;2024-01-10T09:08:25;3.50;99.90
49765;DHT22;35657;51.204;-4.130;2024-01-10T09:10:51;3.50;99.90
49765;DHT22;35657;51.204;-4.130;2024-01-10T09:13:16;3.50;99.90
49765;DHT22;35657;51.204;-4.130;2024-01-10T09:15:43;3.50;99.90
49765;DHT22;35657;51.204;-4.130;2024-01-10T09:18:08;3.50;99.90
49765;DHT22;35657;51.204;-4.130;2024-01-10T09:20:35;3.50;99.90
49765;DHT22;35657;51.204;-4.130;2024-01-10T09:23:01;3.50;99.90
49765;DHT22;35657;51.204;-4.130;2024-01-10T09:25:28;3.50;99.90
49765;DHT22;35657;51.204;-4.130;2024-01-10T09:27:54;3.50;99.90
49765;DHT22;35657;51.204;-4.130;2024-01-10T09:30:20;3.50;99.90
49765;DHT22;35657;51.204;-4.130;2024-01-10T09:32:46;3.60;99.90
49765;DHT22;35657;51.204;-4.130;2024-01-10T09:35:12;3.60;99.90
49765;DHT22;35657;51.204;-4.130;2024-01-10T09:37:39;3.60;99.90
49765;DHT22;35657;51.204;-4.130;2024-01-10T09:40:05;3.60;99.90
49765;DHT22;35657;51.204;-4.130;2024-01-10T09:42:33;3.60;99.90
49765;DHT22;35657;51.204;-4.130;2024-01-10T09:45:01;3.60;99.90
49765;DHT22;35657;51.204;-4.130;2024-01-10T09:47:28;3.60;99.90
49765;DHT22;35657;51.204;-4.130;2024-01-10T09:49:56;3.70;99.90
49765;DHT22;35657;51.204;-4.130;2024-01-10T09:52:27;3.60;99.90
49765;DHT22;35657;51.204;-4.130;2024-01-10T09:54:55;3.70;99.90
49765;DHT22;35657;51.204;-4.130;2024-01-10T09:57:24;3.70;99.90
49765;DHT22;35657;51.204;-4.130;2024-01-10T09:59:51;3.70;99.90
49765;DHT22;35657;51.204;-4.130;2024-01-10T10:02:18;3.70;99.90
49765;DHT22;35657;51.204;-4.130;2024-01-10T10:05:03;3.70;99.90
49765;DHT22;35657;51.204;-4.130;2024-01-10T10:07:51;3.70;99.90
49765;DHT22;35657;51.204;-4.130;2024-01-10T10:10:20;3.80;99.90
49765;DHT22;35657;51.204;-4.130;2024-01-10T10:12:52;3.80;99.90
49765;DHT22;35657;51.204;-4.130;2024-01-10T10:15:23;3.80;99.90
49765;DHT22;35657;51.204;-4.130;2024-01-10T10:17:52;3.90;99.90
49765;DHT22;35657;51.204;-4.130;2024-01-10T10:20:26;3.90;99.90
49765;DHT22;35657;51.204;-4.130;2024-01-10T10:23:08;3.90;99.90
49765;DHT22;35657;51.204;-4.130;2024-01-10T10:25:45;3.90;99.90
49765;DHT22;35657;51.204;-4.130;2024-01-10T10:28:12;3.90;99.90
49765;DHT22;35657;51.204;-4.130;2024-01-10T10:30:38;3.90;99.90
49765;DHT22;35657;51.204;-4.130;2024-01-10T10:33:05;3.90;99.90
49765;DHT22;35657;51.204;-4.130;2024-01-10T10:35:34;3.90;99.90
49765;DHT22;35657;51.204;-4.130;2024-01-10T10:38:00;3.90;99.90
49765;DHT22;35657;51.204;-4.130;2024-01-10T10:40:25;3.90;99.90
49765;DHT22;35657;51.204;-4.130;2024-01-10T10:42:57;3.90;99.90
49765;DHT22;35657;51.204;-4.130;2024-01-10T10:45:23;4.00;99.90
49765;DHT22;35657;51.204;-4.130;2024-01-10T10:47:59;4.00;99.90
49765;DHT22;35657;51.204;-4.130;2024-01-10T10:50:28;4.00;99.90
49765;DHT22;35657;51.204;-4.130;2024-01-10T10:52:58;4.00;99.90
49765;DHT22;35657;51.204;-4.130;2024-01-10T10:55:24;3.90;99.90
49765;DHT22;35657;51.204;-4.130;2024-01-10T10:57:54;3.90;99.90
49765;DHT22;35657;51.204;-4.130;2024-01-10T11:00:21;4.00;99.90
49765;DHT22;35657;51.204;-4.130;2024-01-10T11:02:53;4.00;99.90
49765;DHT22;35657;51.204;-4.130;2024-01-10T11:05:20;4.00;99.90
49765;DHT22;35657;51.204;-4.130;2024-01-10T11:07:47;4.00;99.90
49765;DHT22;35657;51.204;-4.130;2024-01-10T11:10:23;4.00;99.90
49765;DHT22;35657;51.204;-4.130;2024-01-10T11:22:16;4.10;99.90
49765;DHT22;35657;51.204;-4.130;2024-01-10T11:24:08;4.10;99.90
49765;DHT22;35657;51.204;-4.130;2024-01-10T11:26:37;4.10;99.90
49765;DHT22;35657;51.204;-4.130;2024-01-10T11:29:04;4.20;99.90
49765;DHT22;35657;51.204;-4.130;2024-01-10T11:31:32;4.20;99.90
49765;DHT22;35657;51.204;-4.130;2024-01-10T11:34:00;4.20;99.90
49765;DHT22;35657;51.204;-4.130;2024-01-10T11:36:26;4.20;99.90
49765;DHT22;35657;51.204;-4.130;2024-01-10T11:41:23;4.20;99.90
49765;DHT22;35657;51.204;-4.130;2024-01-10T11:46:45;4.30;99.90
49765;DHT22;35657;51.204;-4.130;2024-01-10T11:49:14;4.30;99.90
49765;DHT22;35657;51.204;-4.130;2024-01-10T11:51:57;4.30;99.90
49765;DHT22;35657;51.204;-4.130;2024-01-10T11:54:36;4.30;99.90
49765;DHT22;35657;51.204;-4.130;2024-01-10T11:57:07;4.40;99.90
49765;DHT22;35657;51.204;-4.130;2024-01-10T11:59:33;4.30;99.90
49765;DHT22;35657;51.204;-4.130;2024-01-10T12:01:59;4.40;99.90
49765;DHT22;35657;51.204;-4.130;2024-01-10T12:04:26;4.40;99.90
49765;DHT22;35657;51.204;-4.130;2024-01-10T12:06:56;4.50;99.90
49765;DHT22;35657;51.204;-4.130;2024-01-10T12:09:22;4.50;99.90
49765;DHT22;35657;51.204;-4.130;2024-01-10T12:11:50;4.50;99.90
49765;DHT22;35657;51.204;-4.130;2024-01-10T12:14:15;4.50;99.90
49765;DHT22;35657;51.204;-4.130;2024-01-10T12:16:41;4.50;99.90
49765;DHT22;35657;51.204;-4.130;2024-01-10T12:19:07;4.60;99.90
49765;DHT22;35657;51.204;-4.130;2024-01-10T12:21:33;4.60;99.90
49765;DHT22;35657;51.204;-4.130;2024-01-10T12:23:58;4.60;99.90
49765;DHT22;35657;51.204;-4.130;2024-01-10T12:26:24;4.60;99.90
49765;DHT22;35657;51.204;-4.130;2024-01-10T12:28:54;4.60;99.90
49765;DHT22;35657;51.204;-4.130;2024-01-10T12:31:21;4.70;99.90
49765;DHT22;35657;51.204;-4.130;2024-01-10T12:33:51;4.70;99.90
49765;DHT22;35657;51.204;-4.130;2024-01-10T12:36:18;4.70;99.90
49765;DHT22;35657;51.204;-4.130;2024-01-10T12:38:44;4.70;99.90
49765;DHT22;35657;51.204;-4.130;2024-01-10T12:41:15;4.70;99.90
49765;DHT22;35657;51.204;-4.130;2024-01-10T12:43:41;4.60;99.90
49765;DHT22;35657;51.204;-4.130;2024-01-10T12:46:07;4.60;99.90
49765;DHT22;35657;51.204;-4.130;2024-01-10T12:48:34;4.70;99.90
49765;DHT22;35657;51.204;-4.130;2024-01-10T12:51:04;4.70;99.90
49765;DHT22;35657;51.204;-4.130;2024-01-10T12:53:37;4.70;99.90
49765;DHT22;35657;51.204;-4.130;2024-01-10T12:56:04;4.70;99.90
49765;DHT22;35657;51.204;-4.130;2024-01-10T12:58:31;4.80;99.90
49765;DHT22;35657;51.204;-4.130;2024-01-10T13:00:57;4.80;99.90
49765;DHT22;35657;51.204;-4.130;2024-01-10T13:03:23;4.80;99.90
49765;DHT22;35657;51.204;-4.130;2024-01-10T13:05:52;4.80;99.90
49765;DHT22;35657;51.204;-4.130;2024-01-10T13:08:19;4.80;99.90
49765;DHT22;35657;51.204;-4.130;2024-01-10T13:10:46;4.80;99.90
49765;DHT22;35657;51.204;-4.130;2024-01-10T13:13:13;4.80;99.90
49765;DHT22;35657;51.204;-4.130;2024-01-10T13:15:39;4.90;99.90
49765;DHT22;35657;51.204;-4.130;2024-01-10T13:18:05;4.90;99.90
49765;DHT22;35657;51.204;-4.130;2024-01-10T13:20:32;4.90;99.90
49765;DHT22;35657;51.204;-4.130;2024-01-10T13:22:58;5.00;99.90
49765;DHT22;35657;51.204;-4.130;2024-01-10T13:25:23;5.00;99.90
49765;DHT22;35657;51.204;-4.130;2024-01-10T13:27:50;5.00;99.90
49765;DHT22;35657;51.204;-4.130;2024-01-10T13:30:16;5.00;99.90
49765;DHT22;35657;51.204;-4.130;2024-01-10T13:32:43;5.00;99.90
49765;DHT22;35657;51.204;-4.130;2024-01-10T13:35:09;5.10;99.90
49765;DHT22;35657;51.204;-4.130;2024-01-10T13:37:35;5.10;99.90
49765;DHT22;35657;51.204;-4.130;2024-01-10T13:40:02;5.20;99.90
49765;DHT22;35657;51.204;-4.130;2024-01-10T13:42:31;5.20;99.90
49765;DHT22;35657;51.204;-4.130;2024-01-10T13:44:58;5.20;99.90
49765;DHT22;35657;51.204;-4.130;2024-01-10T13:47:24;5.10;99.90
49765;DHT22;35657;51.204;-4.130;2024-01-10T13:49:49;5.10;99.90
49765;DHT22;35657;51.204;-4.130;2024-01-10T13:52:15;5.10;99.90
49765;DHT22;35657;51.204;-4.130;2024-01-10T13:54:41;5.00;99.90
49765;DHT22;35657;51.204;-4.130;2024-01-10T13:57:08;5.00;99.90
49765;DHT22;35657;51.204;-4.130;2024-01-10T13:59:33;5.00;99.90
49765;DHT22;35657;51.204;-4.130;2024-01-10T14:01:59;5.00;99.90
49765;DHT22;35657;51.204;-4.130;2024-01-10T14:04:25;5.10;99.90
49765;DHT22;35657;51.204;-4.130;2024-01-10T14:06:51;5.10;99.90
49765;DHT22;35657;51.204;-4.130;2024-01-10T14:09:17;5.10;99.90
49765;DHT22;35657;51.204;-4.130;2024-01-10T14:11:43;5.10;99.90
49765;DHT22;35657;51.204;-4.130;2024-01-10T14:14:16;5.10;99.90
49765;DHT22;35657;51.204;-4.130;2024-01-10T14:16:42;5.10;99.90
49765;DHT22;35657;51.204;-4.130;2024-01-10T14:19:07;5.10;99.90
49765;DHT22;35657;51.204;-4.130;2024-01-10T14:21:33;5.10;99.90
49765;DHT22;35657;51.204;-4.130;2024-01-10T14:23:59;5.20;99.90
49765;DHT22;35657;51.204;-4.130;2024-01-10T14:26:25;5.20;99.90
49765;DHT22;35657;51.204;-4.130;2024-01-10T14:28:52;5.20;99.90
49765;DHT22;35657;51.204;-4.130;2024-01-10T14:31:22;5.30;99.90
49765;DHT22;35657;51.204;-4.130;2024-01-10T14:33:48;5.20;99.90
49765;DHT22;35657;51.204;-4.130;2024-01-10T14:36:14;5.20;99.90
49765;DHT22;35657;51.204;-4.130;2024-01-10T14:38:40;5.30;99.90
49765;DHT22;35657;51.204;-4.130;2024-01-10T14:41:09;5.30;99.90
49765;DHT22;35657;51.204;-4.130;2024-01-10T14:43:38;5.30;99.90
49765;DHT22;35657;51.204;-4.130;2024-01-10T14:46:05;5.30;99.90
49765;DHT22;35657;51.204;-4.130;2024-01-10T14:48:33;5.30;99.90
49765;DHT22;35657;51.204;-4.130;2024-01-10T14:51:00;5.30;99.90
49765;DHT22;35657;51.204;-4.130;2024-01-10T14:53:26;5.30;99.90
49765;DHT22;35657;51.204;-4.130;2024-01-10T14:55:52;5.30;99.90
49765;DHT22;35657;51.204;-4.130;2024-01-10T14:58:18;5.30;99.90
49765;DHT22;35657;51.204;-4.130;2024-01-10T15:00:45;5.30;99.90
49765;DHT22;35657;51.204;-4.130;2024-01-10T15:03:10;5.30;99.90
49765;DHT22;35657;51.204;-4.130;2024-01-10T15:05:37;5.40;99.90
49765;DHT22;35657;51.204;-4.130;2024-01-10T15:08:03;5.30;99.90
49765;DHT22;35657;51.204;-4.130;2024-01-10T15:10:33;5.40;99.90
49765;DHT22;35657;51.204;-4.130;2024-01-10T15:12:59;5.40;99.90
49765;DHT22;35657;51.204;-4.130;2024-01-10T15:15:25;5.30;99.90
49765;DHT22;35657;51.204;-4.130;2024-01-10T15:17:51;5.30;99.90
49765;DHT22;35657;51.204;-4.130;2024-01-10T15:20:16;5.40;99.90
49765;DHT22;35657;51.204;-4.130;2024-01-10T15:22:42;5.40;99.90
49765;DHT22;35657;51.204;-4.130;2024-01-10T15:25:08;5.30;99.90
49765;DHT22;35657;51.204;-4.130;2024-01-10T15:27:34;5.30;99.90
49765;DHT22;35657;51.204;-4.130;2024-01-10T15:30:01;5.30;99.90
49765;DHT22;35657;51.204;-4.130;2024-01-10T15:32:27;5.30;99.90
49765;DHT22;35657;51.204;-4.130;2024-01-10T15:34:54;5.30;99.90
49765;DHT22;35657;51.204;-4.130;2024-01-10T15:37:20;5.30;99.90
49765;DHT22;35657;51.204;-4.130;2024-01-10T15:39:48;5.30;99.90
49765;DHT22;35657;51.204;-4.130;2024-01-10T15:42:14;5.30;99.90